Time;durP1;ratioP1;P1;durP2;ratioP2;P2;SDS_P1;SDS_P2;PMS_P1;PMS_P2;Temp;Humidity;BMP_temperature;BMP_pressure;BME280_temperature;BME280_humidity;BME280_pressure;Samples;Min_cycle;Max_cycle;Signal;HPM_P1;HPM_P2
2023/03/10 00:00:43;;;;;;;23.05;11.35;;;;;;;0.27;100.00;98966.97;5074111;28;20025;-70
2023/03/10 00:03:09;;;;;;;23.25;11.90;;;;;;;0.26;100.00;98953.06;5074400;28;20037;-70
2023/03/10 00:05:38;;;;;;;22.98;11.65;;;;;;;0.28;100.00;98942.50;5074343;28;20381;-70
2023/03/10 00:08:05;;;;;;;27.45;11.38;;;;;;;0.28;100.00;98930.22;5073789;28;20032;-70
2023/03/10 00:10:30;;;;;;;26.30;12.18;;;;;;;0.29;100.00;98928.47;5073865;28;20060;-70
2023/03/10 00:12:56;;;;;;;23.35;11.20;;;;;;;0.32;100.00;98933.47;5074017;28;20546;-70
2023/03/10 00:15:22;;;;;;;26.83;11.50;;;;;;;0.34;100.00;98935.00;5073936;28;20044;-69
2023/03/10 00:17:54;;;;;;;28.58;11.70;;;;;;;0.34;100.00;98929.78;5073934;28;20028;-69
2023/03/10 00:20:19;;;;;;;25.67;12.05;;;;;;;0.35;100.00;98941.06;5074737;28;20044;-69
2023/03/10 00:22:45;;;;;;;21.92;10.90;;;;;;;0.34;100.00;98932.41;5073874;28;20032;-70
2023/03/10 00:25:11;;;;;;;27.58;11.65;;;;;;;0.35;100.00;98933.22;5073826;28;20432;-70
2023/03/10 00:27:36;;;;;;;22.33;10.93;;;;;;;0.35;100.00;98926.19;5073801;28;20040;-71
2023/03/10 00:30:02;;;;;;;31.40;11.65;;;;;;;0.34;100.00;98919.31;5073442;28;20032;-71
2023/03/10 00:32:28;;;;;;;28.33;11.38;;;;;;;0.34;100.00;98914.06;5073672;28;20036;-69
2023/03/10 00:34:53;;;;;;;27.02;11.50;;;;;;;0.34;100.00;98919.31;5074462;28;20041;-70
2023/03/10 00:37:19;;;;;;;26.23;11.93;;;;;;;0.34;100.00;98919.31;5073987;28;20033;-69
2023/03/10 00:39:48;;;;;;;22.35;10.15;;;;;;;0.33;100.00;98914.19;5073778;28;20461;-70
2023/03/10 00:42:14;;;;;;;22.52;10.82;;;;;;;0.35;100.00;98912.28;5056401;28;20036;-70
2023/03/10 00:44:39;;;;;;;24.75;10.73;;;;;;;0.35;100.00;98920.13;5073783;28;20489;-69
2023/03/10 00:47:05;;;;;;;25.80;11.02;;;;;;;0.34;100.00;98906.22;5073518;28;20119;-70
2023/03/10 00:49:30;;;;;;;23.65;10.48;;;;;;;0.34;100.00;98908.00;5073629;28;20385;-70
2023/03/10 00:51:56;;;;;;;26.23;10.45;;;;;;;0.33;100.00;98909.78;5073784;28;20131;-70
2023/03/10 00:54:21;;;;;;;24.70;10.60;;;;;;;0.35;100.00;98907.06;5056779;28;20099;-69
2023/03/10 00:56:46;;;;;;;27.08;11.18;;;;;;;0.34;100.00;98902.75;5073805;28;20040;-69
2023/03/10 00:59:12;;;;;;;26.48;10.73;;;;;;;0.34;100.00;98915.84;5056238;28;20039;-71
2023/03/10 01:01:40;;;;;;;25.45;11.68;;;;;;;0.34;100.00;98908.00;5056089;28;20031;-69
2023/03/10 01:04:17;;;;;;;24.52;11.00;;;;;;;0.34;100.00;98903.63;5073194;28;20028;-69
2023/03/10 01:06:46;;;;;;;22.48;10.77;;;;;;;0.34;100.00;98895.78;5056310;28;20441;-69
2023/03/10 01:09:11;;;;;;;25.60;11.07;;;;;;;0.35;100.00;98899.19;5072960;28;20090;-69
2023/03/10 01:11:37;;;;;;;27.13;12.00;;;;;;;0.35;100.00;98891.34;5073563;28;20037;-70
2023/03/10 01:14:06;;;;;;;27.13;11.15;;;;;;;0.35;100.00;98891.34;5073256;28;20468;-69
2023/03/10 01:16:31;;;;;;;25.38;11.88;;;;;;;0.34;100.00;98881.84;5074248;28;20346;-70
2023/03/10 01:18:57;;;;;;;26.83;12.05;;;;;;;0.33;100.00;98886.25;5055585;28;20071;-70
2023/03/10 01:21:29;;;;;;;26.45;11.80;;;;;;;0.33;100.00;98882.81;5073770;28;20086;-69
2023/03/10 01:23:54;;;;;;;25.33;11.60;;;;;;;0.32;100.00;98881.97;5073321;28;20025;-71
2023/03/10 01:26:19;;;;;;;24.77;11.77;;;;;;;0.32;100.00;98884.56;5055315;28;20043;-72
2023/03/10 01:28:46;;;;;;;26.80;11.65;;;;;;;0.31;100.00;98874.22;5073025;28;20123;-70
2023/03/10 01:31:12;;;;;;;23.38;11.40;;;;;;;0.32;100.00;98881.13;5073103;28;20036;-71
2023/03/10 01:33:39;;;;;;;30.35;12.05;;;;;;;0.31;100.00;98882.06;5073552;28;20131;-70
2023/03/10 01:36:10;;;;;;;25.27;11.93;;;;;;;0.31;100.00;98872.47;5073127;28;20480;-69
2023/03/10 01:38:36;;;;;;;24.40;11.57;;;;;;;0.31;100.00;98863.75;5072951;28;20039;-69
2023/03/10 01:41:02;;;;;;;22.00;11.52;;;;;;;0.31;100.00;98863.75;5054836;28;20111;-70
2023/03/10 01:43:30;;;;;;;24.77;11.25;;;;;;;0.32;100.00;98857.59;5072514;28;20028;-69
2023/03/10 01:46:01;;;;;;;27.67;11.98;;;;;;;0.31;100.00;98862.00;5073065;28;20036;-69
2023/03/10 01:48:29;;;;;;;28.13;12.35;;;;;;;0.31;100.00;98848.91;5072571;28;20108;-71
2023/03/10 01:50:56;;;;;;;27.02;11.57;;;;;;;0.31;100.00;98846.31;5072441;28;20033;-69
2023/03/10 01:53:24;;;;;;;29.77;12.77;;;;;;;0.31;100.00;98848.06;5072860;28;20055;-70
2023/03/10 01:55:54;;;;;;;29.30;11.05;;;;;;;0.30;100.00;98843.78;5072633;28;20534;-70
2023/03/10 01:58:24;;;;;;;27.13;12.27;;;;;;;0.30;100.00;98849.00;5072353;28;20040;-70
2023/03/10 02:00:52;;;;;;;28.10;12.18;;;;;;;0.28;100.00;98853.53;5073412;28;20025;-70
2023/03/10 02:03:22;;;;;;;29.38;11.73;;;;;;;0.28;100.00;98838.66;5054424;28;20025;-70
2023/03/10 02:06:03;;;;;;;26.30;11.27;;;;;;;0.27;100.00;98829.19;5072360;28;20115;-70
2023/03/10 02:08:32;;;;;;;34.28;12.90;;;;;;;0.27;100.00;98818.72;5072654;28;20056;-69
2023/03/10 02:10:58;;;;;;;28.20;12.55;;;;;;;0.28;100.00;98822.16;5072436;28;20059;-70
2023/03/10 02:13:23;;;;;;;29.33;11.88;;;;;;;0.28;100.00;98828.22;5072189;28;20040;-72
2023/03/10 02:15:49;;;;;;;27.05;12.20;;;;;;;0.28;100.00;98828.22;5072499;28;20061;-70
2023/03/10 02:18:16;;;;;;;35.20;12.60;;;;;;;0.29;100.00;98824.66;5072977;28;20041;-70
2023/03/10 02:20:54;;;;;;;28.00;11.00;;;;;;;0.28;100.00;98822.97;5072130;28;20033;-70
2023/03/10 02:23:32;;;;;;;26.55;12.05;;;;;;;0.29;100.00;98823.81;5072075;28;20060;-70
2023/03/10 02:26:22;;;;;;;27.02;11.82;;;;;;;0.27;100.00;98821.34;5072367;28;20408;-70
2023/03/10 02:28:49;;;;;;;30.05;12.05;;;;;;;0.28;100.00;98822.97;5071642;28;20041;-70
2023/03/10 02:31:16;;;;;;;27.77;11.38;;;;;;;0.29;100.00;98808.13;5074328;28;20051;-70
2023/03/10 02:33:44;;;;;;;28.40;12.00;;;;;;;0.28;100.00;98817.75;5076042;28;20457;-70
2023/03/10 02:36:13;;;;;;;25.65;11.32;;;;;;;0.28;100.00;98811.69;5058875;28;20349;-70
2023/03/10 02:38:38;;;;;;;25.77;11.15;;;;;;;0.29;100.00;98815.97;5076246;28;20063;-70
2023/03/10 02:41:15;;;;;;;34.88;11.73;;;;;;;0.28;100.00;98804.66;5076055;28;20024;-70
2023/03/10 02:43:40;;;;;;;30.52;11.60;;;;;;;0.29;100.00;98811.56;5058503;28;20361;-71
2023/03/10 02:46:07;;;;;;;24.45;10.75;;;;;;;0.29;100.00;98811.56;5041198;28;20119;-71
2023/03/10 02:48:36;;;;;;;27.58;11.32;;;;;;;0.27;100.00;98807.41;5076067;28;20056;-70
2023/03/10 02:51:07;;;;;;;31.17;11.60;;;;;;;0.26;100.00;98801.34;5076122;28;20028;-70
2023/03/10 02:53:33;;;;;;;31.35;11.63;;;;;;;0.27;100.00;98796.94;5075377;28;20457;-70
2023/03/10 02:55:58;;;;;;;24.15;10.85;;;;;;;0.27;100.00;98789.94;5076291;28;20115;-69
2023/03/10 02:58:26;;;;;;;25.80;11.18;;;;;;;0.28;100.00;98794.19;5075124;28;20032;-70
2023/03/10 03:00:52;;;;;;;30.17;11.65;;;;;;;0.29;100.00;98793.25;5075479;28;20051;-71
2023/03/10 03:03:19;;;;;;;28.88;10.80;;;;;;;0.28;100.00;98786.34;5075375;28;20050;-70
2023/03/10 03:05:45;;;;;;;24.05;11.23;;;;;;;0.29;100.00;98790.63;5075914;28;20385;-69
2023/03/10 03:08:11;;;;;;;27.92;11.38;;;;;;;0.30;100.00;98794.06;5075510;28;20033;-70
2023/03/10 03:10:37;;;;;;;25.88;10.77;;;;;;;0.29;100.00;98780.19;5057307;28;20039;-70
2023/03/10 03:13:04;;;;;;;25.20;10.85;;;;;;;0.30;100.00;98787.06;5075270;28;20115;-71
2023/03/10 03:15:30;;;;;;;22.83;11.05;;;;;;;0.31;100.00;98785.28;5057056;28;20468;-72
2023/03/10 03:17:57;;;;;;;26.20;10.65;;;;;;;0.29;100.00;98782.78;5075751;28;20047;-70
2023/03/10 03:20:23;;;;;;;30.42;10.85;;;;;;;0.30;100.00;98781.00;5075052;28;20068;-69
2023/03/10 03:22:49;;;;;;;26.60;10.88;;;;;;;0.27;100.00;98789.09;5075503;28;20471;-70
2023/03/10 03:25:16;;;;;;;29.50;10.88;;;;;;;0.27;100.00;98789.09;5074874;28;20036;-70
2023/03/10 03:27:43;;;;;;;23.08;9.85;;;;;;;0.26;100.00;98788.28;5074727;28;20051;-72
2023/03/10 03:30:16;;;;;;;26.52;10.27;;;;;;;0.26;100.00;98785.66;5074986;28;20103;-71
2023/03/10 03:32:42;;;;;;;28.70;11.02;;;;;;;0.26;100.00;98783.03;5075435;28;20032;-71
2023/03/10 03:35:16;;;;;;;24.02;9.60;;;;;;;0.26;100.00;98785.66;5075336;28;20039;-70
2023/03/10 03:37:43;;;;;;;28.23;10.13;;;;;;;0.26;100.00;98784.84;5075275;28;20029;-70
2023/03/10 03:40:12;;;;;;;22.88;9.63;;;;;;;0.26;100.00;98782.22;5074978;28;20063;-70
2023/03/10 03:42:42;;;;;;;30.35;10.95;;;;;;;0.25;100.00;98786.59;5073874;28;20204;-71
2023/03/10 03:45:08;;;;;;;24.10;9.95;;;;;;;0.26;100.00;98783.03;5074643;28;20028;-72
2023/03/10 03:47:34;;;;;;;28.42;11.13;;;;;;;0.25;100.00;98776.13;5074404;28;20063;-71
2023/03/10 03:50:00;;;;;;;28.83;10.77;;;;;;;0.27;100.00;98770.78;5074461;28;20040;-70
2023/03/10 03:52:26;;;;;;;27.92;10.90;;;;;;;0.28;100.00;98769.84;5075101;28;20120;-70
2023/03/10 03:54:51;;;;;;;25.95;10.68;;;;;;;0.29;100.00;98767.09;5074810;28;20409;-71
2023/03/10 03:57:17;;;;;;;25.95;10.98;;;;;;;0.30;100.00;98760.91;5074380;28;20159;-71
2023/03/10 03:59:42;;;;;;;29.73;10.50;;;;;;;0.29;100.00;98772.31;5074513;28;20119;-70
2023/03/10 04:02:07;;;;;;;30.85;11.30;;;;;;;0.30;100.00;98774.00;5074744;28;20487;-70
2023/03/10 04:04:33;;;;;;;24.98;10.27;;;;;;;0.31;100.00;98780.06;5074151;28;20055;-70
2023/03/10 04:07:00;;;;;;;24.65;9.63;;;;;;;0.31;100.00;98769.59;5073980;28;20068;-70
2023/03/10 04:09:26;;;;;;;25.75;10.02;;;;;;;0.30;100.00;98750.44;5074741;28;20161;-71
2023/03/10 04:11:51;;;;;;;29.70;9.70;;;;;;;0.31;100.00;98731.19;5074731;28;20067;-70
2023/03/10 04:14:16;;;;;;;31.88;10.93;;;;;;;0.33;100.00;98739.72;5074087;28;20036;-71
2023/03/10 04:16:43;;;;;;;32.08;11.20;;;;;;;0.31;100.00;98759.97;5074621;28;20052;-71
2023/03/10 04:19:08;;;;;;;32.53;11.02;;;;;;;0.31;100.00;98761.72;5056157;28;20094;-70
2023/03/10 04:21:34;;;;;;;25.70;10.13;;;;;;;0.30;100.00;98763.53;5073830;28;20032;-70
2023/03/10 04:23:59;;;;;;;31.75;11.07;;;;;;;0.31;100.00;98764.34;5074349;28;20032;-70
2023/03/10 04:26:25;;;;;;;29.20;10.65;;;;;;;0.31;100.00;98769.59;5074424;28;20033;-69
2023/03/10 04:28:50;;;;;;;32.13;11.60;;;;;;;0.28;100.00;98780.31;5073872;28;20032;-70
2023/03/10 04:31:17;;;;;;;28.23;10.68;;;;;;;0.27;100.00;98774.25;5073849;28;20032;-70
2023/03/10 04:33:43;;;;;;;31.90;10.77;;;;;;;0.27;100.00;98771.63;5073643;28;20036;-70
2023/03/10 04:36:08;;;;;;;28.52;9.98;;;;;;;0.27;100.00;98776.00;5073744;28;20412;-70
2023/03/10 04:38:34;;;;;;;30.65;10.30;;;;;;;0.26;100.00;98767.34;5055730;28;20036;-71
2023/03/10 04:41:00;;;;;;;29.38;10.25;;;;;;;0.28;100.00;98757.56;5055626;28;20112;-70
2023/03/10 04:43:26;;;;;;;26.10;9.63;;;;;;;0.27;100.00;98761.16;5073056;28;20439;-72
2023/03/10 04:45:52;;;;;;;29.08;9.70;;;;;;;0.26;100.00;98769.13;5073523;28;20024;-70
2023/03/10 04:48:17;;;;;;;30.17;9.45;;;;;;;0.25;100.00;98760.44;5073156;28;20036;-69
2023/03/10 04:50:42;;;;;;;26.00;9.07;;;;;;;0.23;100.00;98753.69;5073428;28;20036;-70
2023/03/10 04:53:08;;;;;;;31.85;10.10;;;;;;;0.25;100.00;98752.59;5072805;28;20115;-70
2023/03/10 04:55:33;;;;;;;33.33;10.60;;;;;;;0.25;100.00;98755.22;5072972;28;20040;-70
2023/03/10 04:57:59;;;;;;;28.92;9.90;;;;;;;0.25;100.00;98751.78;5055331;28;20496;-70
2023/03/10 05:00:24;;;;;;;28.08;9.35;;;;;;;0.25;100.00;98743.94;5073284;28;20036;-71
2023/03/10 05:02:50;;;;;;;30.58;9.65;;;;;;;0.25;100.00;98747.38;5073127;28;20036;-70
2023/03/10 05:05:15;;;;;;;32.67;9.52;;;;;;;0.26;100.00;98749.03;5073285;28;20025;-71
2023/03/10 05:07:41;;;;;;;30.42;9.55;;;;;;;0.26;100.00;98749.03;5073866;28;20033;-70
2023/03/10 05:10:07;;;;;;;33.58;10.07;;;;;;;0.25;100.00;98744.75;5073236;28;20028;-70
2023/03/10 05:12:32;;;;;;;35.53;9.43;;;;;;;0.26;100.00;98742.97;5073373;28;20113;-70
2023/03/10 05:14:58;;;;;;;35.15;10.15;;;;;;;0.27;100.00;98749.84;5072960;28;20060;-70
2023/03/10 05:17:25;;;;;;;39.40;10.88;;;;;;;0.27;100.00;98755.09;5055864;28;20032;-70
2023/03/10 05:19:50;;;;;;;32.80;9.95;;;;;;;0.26;100.00;98754.25;5072977;28;20115;-70
2023/03/10 05:22:16;;;;;;;32.17;10.43;;;;;;;0.27;100.00;98755.09;5073545;28;20107;-71
2023/03/10 05:24:41;;;;;;;38.97;10.63;;;;;;;0.26;100.00;98750.81;5072632;28;20472;-71
2023/03/10 05:27:07;;;;;;;31.77;9.48;;;;;;;0.27;100.00;98749.84;5072989;28;20461;-71
2023/03/10 05:29:33;;;;;;;34.55;9.38;;;;;;;0.29;100.00;98750.56;5072861;28;20040;-71
2023/03/10 05:31:58;;;;;;;29.02;10.27;;;;;;;0.28;100.00;98738.44;5072970;28;20032;-71
2023/03/10 05:34:25;;;;;;;32.75;10.68;;;;;;;0.27;100.00;98742.84;5072999;28;20060;-70
2023/03/10 05:36:51;;;;;;;29.30;9.02;;;;;;;0.27;100.00;98739.38;5073150;28;20060;-70
2023/03/10 05:39:17;;;;;;;32.00;10.05;;;;;;;0.27;100.00;98750.69;5055331;28;20032;-71
2023/03/10 05:41:42;;;;;;;38.00;9.75;;;;;;;0.28;100.00;98756.75;5054834;28;20074;-72
2023/03/10 05:44:09;;;;;;;32.13;9.88;;;;;;;0.25;100.00;98747.38;5072549;28;20417;-71
2023/03/10 05:46:34;;;;;;;27.02;8.93;;;;;;;0.23;100.00;98757.13;5072822;28;20032;-71
2023/03/10 05:48:59;;;;;;;31.33;9.88;;;;;;;0.24;100.00;98753.56;5073324;28;20085;-71
2023/03/10 05:51:25;;;;;;;36.40;10.05;;;;;;;0.24;100.00;98748.34;5072775;28;20039;-71
2023/03/10 05:53:50;;;;;;;37.78;10.27;;;;;;;0.26;100.00;98748.22;5072680;28;20037;-71
2023/03/10 05:56:17;;;;;;;31.55;9.32;;;;;;;0.26;100.00;98743.81;5072772;28;20035;-71
2023/03/10 05:58:43;;;;;;;31.08;9.73;;;;;;;0.28;100.00;98749.72;5072891;28;20123;-71
2023/03/10 06:01:09;;;;;;;33.83;10.02;;;;;;;0.29;100.00;98750.56;5072694;28;20029;-71
2023/03/10 06:03:36;;;;;;;39.50;10.25;;;;;;;0.27;100.00;98748.09;5072498;28;20029;-72
2023/03/10 06:06:02;;;;;;;35.13;9.82;;;;;;;0.28;100.00;98751.53;5058066;28;20044;-71
2023/03/10 06:08:29;;;;;;;35.60;13.60;;;;;;;0.28;100.00;98749.72;5076506;28;20033;-71
2023/03/10 06:10:56;;;;;;;36.35;10.82;;;;;;;0.28;100.00;98759.38;5076569;28;20025;-71
2023/03/10 06:13:22;;;;;;;34.25;9.68;;;;;;;0.26;100.00;98754.25;5076189;28;20028;-71
2023/03/10 06:15:52;;;;;;;32.67;9.63;;;;;;;0.28;100.00;98751.53;5076340;28;20080;-71
2023/03/10 06:18:19;;;;;;;33.17;9.75;;;;;;;0.29;100.00;98754.00;5075934;28;20028;-71
2023/03/10 06:20:45;;;;;;;33.85;9.60;;;;;;;0.30;100.00;98746.97;5076086;28;20032;-71
2023/03/10 06:23:11;;;;;;;35.47;9.90;;;;;;;0.30;100.00;98758.31;5076608;28;20115;-71
2023/03/10 06:25:36;;;;;;;36.40;9.82;;;;;;;0.30;100.00;98750.44;5076120;28;20452;-72
2023/03/10 06:28:02;;;;;;;35.42;9.73;;;;;;;0.33;100.00;98752.81;5076546;28;20479;-70
2023/03/10 06:30:27;;;;;;;41.58;10.40;;;;;;;0.34;100.00;98749.25;5075860;28;20448;-70
2023/03/10 06:32:53;;;;;;;32.40;9.75;;;;;;;0.34;100.00;98741.41;5076005;28;20094;-70
2023/03/10 06:35:18;;;;;;;35.15;10.13;;;;;;;0.35;100.00;98758.75;5076082;28;20032;-72
2023/03/10 06:37:44;;;;;;;53.33;13.70;;;;;;;0.37;100.00;98763.03;5075752;28;20032;-71
2023/03/10 06:40:12;;;;;;;35.95;10.48;;;;;;;0.38;100.00;98764.69;5075733;28;20047;-71
2023/03/10 06:42:41;;;;;;;39.42;10.77;;;;;;;0.38;100.00;98775.97;5075781;28;20088;-69
2023/03/10 06:45:08;;;;;;;33.75;9.88;;;;;;;0.39;100.00;98766.34;5076024;28;20112;-71
2023/03/10 06:47:34;;;;;;;40.25;10.32;;;;;;;0.39;100.00;98766.34;5076298;28;20473;-71
2023/03/10 06:50:00;;;;;;;32.83;9.38;;;;;;;0.39;100.00;98761.97;5075894;28;20119;-71
2023/03/10 06:52:26;;;;;;;42.97;11.30;;;;;;;0.41;100.00;98760.03;5075777;28;20029;-70
2023/03/10 06:54:51;;;;;;;36.28;9.55;;;;;;;0.43;100.00;98745.03;5075706;28;20035;-72
2023/03/10 06:57:17;;;;;;;29.77;9.77;;;;;;;0.47;100.00;98745.63;5075930;28;20032;-71
2023/03/10 06:59:42;;;;;;;32.60;9.30;;;;;;;0.50;100.00;98751.44;5075521;28;20032;-71
2023/03/10 07:02:11;;;;;;;38.13;9.35;;;;;;;0.51;100.00;98749.66;5076063;28;20041;-71
2023/03/10 07:04:37;;;;;;;33.50;8.82;;;;;;;0.53;100.00;98752.97;5057426;28;20029;-72
2023/03/10 07:07:03;;;;;;;34.20;9.05;;;;;;;0.53;100.00;98764.25;5057561;28;20047;-71
2023/03/10 07:09:28;;;;;;;31.73;8.95;;;;;;;0.52;100.00;98764.38;5075484;28;20115;-71
2023/03/10 07:11:54;;;;;;;29.55;8.65;;;;;;;0.52;100.00;98760.00;5075249;28;20033;-71
2023/03/10 07:14:20;;;;;;;33.65;9.02;;;;;;;0.51;100.00;98765.38;5075338;28;20036;-71
2023/03/10 07:16:45;;;;;;;30.60;8.68;;;;;;;0.51;100.00;98766.19;5075008;28;20064;-71
2023/03/10 07:19:11;;;;;;;29.48;8.25;;;;;;;0.52;100.00;98767.00;5075635;28;20450;-71
2023/03/10 07:21:37;;;;;;;26.92;8.40;;;;;;;0.53;100.00;98763.44;5057273;28;20028;-71
2023/03/10 07:24:03;;;;;;;29.02;8.18;;;;;;;0.55;100.00;98753.66;5075196;28;20396;-71
2023/03/10 07:26:28;;;;;;;24.38;7.45;;;;;;;0.58;100.00;98750.78;5075374;28;20473;-71
2023/03/10 07:28:54;;;;;;;25.92;8.13;;;;;;;0.61;100.00;98753.19;5075428;28;20138;-71
2023/03/10 07:31:19;;;;;;;27.63;7.38;;;;;;;0.63;100.00;98756.50;5074996;28;20036;-70
2023/03/10 07:33:44;;;;;;;26.42;7.20;;;;;;;0.64;100.00;98767.78;5075648;28;20033;-71
2023/03/10 07:36:13;;;;;;;30.02;7.72;;;;;;;0.68;100.00;98756.09;5057655;28;20082;-71
2023/03/10 07:38:39;;;;;;;19.38;7.22;;;;;;;0.75;100.00;98766.88;5075197;28;20067;-71
2023/03/10 07:41:14;;;;;;;18.05;7.00;;;;;;;0.78;100.00;98766.66;5074645;28;20029;-71
2023/03/10 07:43:39;;;;;;;22.42;7.13;;;;;;;0.82;100.00;98773.28;5074608;28;20032;-71
2023/03/10 07:46:06;;;;;;;18.33;7.10;;;;;;;0.81;100.00;98772.47;5074208;28;20029;-71
2023/03/10 07:48:32;;;;;;;22.15;7.40;;;;;;;0.82;100.00;98775.91;5074087;28;20028;-71
2023/03/10 07:50:58;;;;;;;22.23;7.00;;;;;;;0.82;100.00;98775.91;5074558;28;20029;-72
2023/03/10 07:53:25;;;;;;;16.17;6.43;;;;;;;0.83;100.00;98780.19;5074554;28;20050;-72
2023/03/10 07:55:50;;;;;;;14.77;6.63;;;;;;;0.82;100.00;98773.28;5073916;28;20033;-72
2023/03/10 07:58:16;;;;;;;22.90;6.88;;;;;;;0.84;100.00;98779.25;5056627;28;20044;-72
2023/03/10 08:00:41;;;;;;;19.95;6.60;;;;;;;0.83;100.00;98780.19;5074363;28;20037;-71
2023/03/10 08:03:06;;;;;;;14.35;6.00;;;;;;;0.84;100.00;98777.44;5056334;28;20032;-71
2023/03/10 08:05:32;;;;;;;13.57;5.43;;;;;;;0.86;100.00;98782.56;5056768;28;20071;-71
2023/03/10 08:07:57;;;;;;;12.30;5.82;;;;;;;0.88;100.00;98784.09;5074258;28;20059;-71
2023/03/10 08:10:23;;;;;;;18.48;6.20;;;;;;;0.90;100.00;98789.19;5074120;28;20033;-70
2023/03/10 08:12:49;;;;;;;11.52;5.57;;;;;;;0.90;100.00;98797.06;5074723;28;20028;-71
2023/03/10 08:15:15;;;;;;;14.07;5.80;;;;;;;0.86;100.00;98793.03;5074308;28;20429;-70
2023/03/10 08:17:41;;;;;;;10.80;5.18;;;;;;;0.84;100.00;98792.34;5074017;28;20449;-70
2023/03/10 08:20:07;;;;;;;13.77;5.88;;;;;;;0.81;100.00;98793.41;5074147;28;20136;-71
2023/03/10 08:22:32;;;;;;;12.40;5.05;;;;;;;0.78;100.00;98788.44;5073601;28;20056;-71
2023/03/10 08:24:58;;;;;;;12.40;5.25;;;;;;;0.78;100.00;98793.66;5073784;28;20117;-71
2023/03/10 08:27:25;;;;;;;11.68;5.47;;;;;;;0.76;100.00;98789.50;5073376;28;20385;-71
2023/03/10 08:29:50;;;;;;;12.63;5.47;;;;;;;0.75;100.00;98798.31;5073504;28;20493;-72
2023/03/10 08:32:16;;;;;;;18.10;5.63;;;;;;;0.73;100.00;98793.19;5073824;28;20074;-71
2023/03/10 08:34:42;;;;;;;19.38;5.72;;;;;;;0.75;100.00;98799.16;5056118;28;20369;-71
2023/03/10 08:37:07;;;;;;;11.25;5.35;;;;;;;0.75;100.00;98795.69;5073653;28;20037;-70
2023/03/10 08:39:33;;;;;;;9.02;4.47;;;;;;;0.74;100.00;98792.25;5074194;28;20115;-72
2023/03/10 08:41:58;;;;;;;13.25;5.25;;;;;;;0.70;100.00;98791.69;5073571;28;20032;-72
2023/03/10 08:44:24;;;;;;;13.57;5.68;;;;;;;0.67;100.00;98791.94;5073787;28;20032;-71
2023/03/10 08:46:49;;;;;;;10.93;5.20;;;;;;;0.66;100.00;98792.06;5073914;28;20115;-72
2023/03/10 08:49:17;;;;;;;16.00;5.45;;;;;;;0.62;100.00;98804.56;5073732;28;20133;-72
2023/03/10 08:51:43;;;;;;;11.02;4.90;;;;;;;0.62;100.00;98804.56;5073271;28;20191;-70
2023/03/10 08:54:10;;;;;;;10.10;4.60;;;;;;;0.63;100.00;98816.69;5073349;28;20025;-71
2023/03/10 08:56:36;;;;;;;10.07;4.50;;;;;;;0.63;100.00;98813.25;5073757;28;20040;-70
2023/03/10 08:59:02;;;;;;;11.45;4.30;;;;;;;0.63;100.00;98823.72;5073251;28;20033;-72
2023/03/10 09:01:30;;;;;;;9.48;4.32;;;;;;;0.65;100.00;98825.25;5072614;28;20342;-71
2023/03/10 09:03:56;;;;;;;10.55;4.18;;;;;;;0.71;100.00;98829.16;5073019;28;20027;-72
2023/03/10 09:06:21;;;;;;;9.23;3.92;;;;;;;0.77;100.00;98827.81;5073149;28;20044;-71
2023/03/10 09:08:49;;;;;;;10.73;3.65;;;;;;;0.81;100.00;98830.06;5073435;28;20037;-71
2023/03/10 09:11:17;;;;;;;8.48;4.28;;;;;;;0.85;100.00;98826.25;5073021;28;20032;-71
2023/03/10 09:13:43;;;;;;;8.93;4.60;;;;;;;0.93;100.00;98832.66;5072738;28;20038;-71
2023/03/10 09:16:08;;;;;;;8.95;4.35;;;;;;;0.97;100.00;98837.50;5072863;28;20112;-71
2023/03/10 09:18:34;;;;;;;7.88;3.88;;;;;;;0.97;100.00;98841.88;5072780;28;20105;-71
2023/03/10 09:21:00;;;;;;;7.78;3.50;;;;;;;0.97;100.00;98837.50;5072352;28;20037;-70
2023/03/10 09:23:25;;;;;;;8.50;3.85;;;;;;;0.98;100.00;98833.09;5072654;28;20029;-70
2023/03/10 09:25:51;;;;;;;5.35;3.55;;;;;;;0.98;100.00;98838.31;5072749;28;20140;-70
2023/03/10 09:28:16;;;;;;;6.70;3.60;;;;;;;0.96;100.00;98833.22;5073364;28;20059;-71
2023/03/10 09:30:42;;;;;;;5.85;3.28;;;;;;;0.92;100.00;98834.41;5072396;28;20536;-71
2023/03/10 09:33:14;;;;;;;5.85;3.45;;;;;;;0.93;100.00;98838.69;5072829;28;20032;-70
2023/03/10 09:35:40;;;;;;;5.47;3.20;;;;;;;0.91;100.00;98835.38;5072566;28;20103;-70
2023/03/10 09:38:05;;;;;;;6.50;3.63;;;;;;;0.88;100.00;98838.22;5072555;28;20563;-70
2023/03/10 09:40:32;;;;;;;5.78;3.65;;;;;;;0.86;100.00;98845.41;5075466;28;20389;-70
2023/03/10 09:43:05;;;;;;;6.40;3.53;;;;;;;0.83;100.00;98849.09;5076655;28;20366;-71
2023/03/10 09:45:52;;;;;;;7.35;3.72;;;;;;;0.78;100.00;98853.06;5076378;28;20055;-71
2023/03/10 09:48:21;;;;;;;6.40;3.58;;;;;;;0.69;100.00;98858.06;5076450;28;20035;-70
2023/03/10 09:50:51;;;;;;;10.20;3.55;;;;;;;0.70;100.00;98859.75;5076942;28;20020;-71
2023/03/10 09:53:35;;;;;;;7.35;3.20;;;;;;;0.77;100.00;98864.47;5077300;28;20463;-72
2023/03/10 09:56:08;;;;;;;5.88;3.15;;;;;;;0.83;100.00;98867.41;5076796;28;20372;-70
2023/03/10 09:58:41;;;;;;;6.25;3.67;;;;;;;0.88;100.00;98877.50;5076780;28;20033;-69
2023/03/10 10:01:15;;;;;;;8.93;3.75;;;;;;;0.87;100.00;98879.31;5076585;28;20115;-71
2023/03/10 10:03:48;;;;;;;7.93;3.97;;;;;;;0.85;100.00;98880.38;5077078;28;20103;-69
2023/03/10 10:06:20;;;;;;;7.28;3.90;;;;;;;0.85;100.00;98883.84;5058522;28;20472;-69
2023/03/10 10:09:02;;;;;;;7.63;3.65;;;;;;;0.86;100.00;98885.50;5076313;28;20063;-70
2023/03/10 10:11:28;;;;;;;7.88;3.90;;;;;;;0.85;100.00;98888.25;5077369;28;20063;-69
2023/03/10 10:14:18;;;;;;;8.75;4.03;;;;;;;0.84;100.00;98886.59;5076615;28;20036;-71
2023/03/10 10:16:53;;;;;;;9.43;4.13;;;;;;;0.85;100.00;98880.38;5076098;28;20168;-70
2023/03/10 10:19:25;;;;;;;5.95;3.47;;;;;;;0.86;100.00;98884.66;5076276;28;20037;-71
2023/03/10 10:22:14;;;;;;;7.15;3.58;;;;;;;0.91;100.00;98892.16;5076618;28;20033;-70
2023/03/10 10:24:41;;;;;;;6.97;3.55;;;;;;;0.97;100.00;98900.34;5075805;28;20040;-71
2023/03/10 10:27:06;;;;;;;5.47;3.40;;;;;;;1.02;100.00;98900.78;5076543;28;20055;-71
2023/03/10 10:29:36;;;;;;;5.88;3.10;;;;;;;0.99;100.00;98898.44;5076071;28;20024;-71
2023/03/10 10:32:09;;;;;;;5.15;3.17;;;;;;;1.07;100.00;98899.59;5058056;28;20044;-71
2023/03/10 10:34:37;;;;;;;3.50;2.47;;;;;;;1.12;100.00;98892.19;5076233;28;20037;-71
2023/03/10 10:37:21;;;;;;;4.47;2.67;;;;;;;1.18;100.00;98900.38;5075966;28;20416;-71
2023/03/10 10:39:48;;;;;;;5.25;3.15;;;;;;;1.25;100.00;98903.31;5076025;28;20119;-69
2023/03/10 10:42:30;;;;;;;5.72;2.70;;;;;;;1.28;100.00;98910.09;5075796;28;20039;-70
2023/03/10 10:44:58;;;;;;;3.83;2.60;;;;;;;1.25;100.00;98918.22;5075833;28;20031;-70
2023/03/10 10:47:35;;;;;;;8.60;2.67;;;;;;;1.21;100.00;98923.69;5076047;28;20071;-68
2023/03/10 10:50:23;;;;;;;3.65;2.40;;;;;;;1.15;100.00;98928.59;5075747;28;20025;-70
2023/03/10 10:53:11;;;;;;;3.63;2.15;;;;;;;1.01;100.00;98916.63;5075471;28;20021;-69
2023/03/10 10:55:37;;;;;;;3.88;2.00;;;;;;;1.02;100.00;98936.66;5057971;28;20048;-70
2023/03/10 10:58:09;;;;;;;3.33;2.03;;;;;;;1.06;100.00;98938.06;5075528;28;20385;-70
2023/03/10 11:00:37;;;;;;;3.47;2.30;;;;;;;1.08;100.00;98935.31;5075752;28;20028;-70
2023/03/10 11:03:29;;;;;;;3.13;2.25;;;;;;;1.17;100.00;98945.84;5075185;28;20039;-70
2023/03/10 11:05:55;;;;;;;2.50;2.00;;;;;;;1.26;100.00;98952.13;5075450;28;20033;-70
2023/03/10 11:08:26;;;;;;;4.60;2.40;;;;;;;1.27;100.00;98955.59;5075186;28;20028;-71
2023/03/10 11:11:33;;;;;;;2.90;2.15;;;;;;;1.30;100.00;98958.81;5075428;28;20162;-70
2023/03/10 11:14:22;;;;;;;3.50;2.00;;;;;;;1.33;100.00;98960.31;5074307;28;20040;-70
2023/03/10 11:17:00;;;;;;;3.22;2.00;;;;;;;1.35;100.00;98964.47;5033712;28;20040;-70
2023/03/10 11:19:34;;;;;;;3.67;2.00;;;;;;;1.41;100.00;98957.91;5075043;28;20154;-70
2023/03/10 11:22:08;;;;;;;5.10;2.42;;;;;;;1.49;100.00;98963.34;5075053;28;20430;-70
2023/03/10 11:24:44;;;;;;;4.07;2.45;;;;;;;1.57;100.00;98966.16;5074811;28;20051;-71
2023/03/10 11:27:17;;;;;;;3.15;2.05;;;;;;;1.62;100.00;98954.47;5075273;28;20368;-70